Charleston, Arkansas
Current Conditions -  °F | °C
As of 4:53 AM on Wednesday 26 Nov 2014 (Local Time) from KFSM Reporting Station
Clear Clear  
Wind Chill: 26°   Ceiling: Unl
Heat Index: 32°   Visibility: 10mi
Dew Point: 27°   Wind: 7mph
Humidity: 82%   Direction: 60°ENE
Pressure: 30.02"   Gusts: NA
Location:  35.3°N, 94.04°W
Report Text: KFSM 261053Z AUTO 06006KT 10SM CLR 00/M03 A3002 RMK AO2 SLP167 T00001028
Loading
Personal Weather Stations






























Interactive Weather Map New forecast layout! Learn more

10-Day Weather Forecast

Advertisements
Track Severe Weather on mobile